Back to Top

Language: 

My Weather Underground Personal Weather Station Historical Data with Graphs...

Delerius Weather Station Historical Data
Daily Summary for November 7, 2017 Units:  English    Metric   Both
« Previous Day
Next Day »
Daily Weekly Monthly Yearly Custom
  High: Low: Average:
Temperature: 52.5 °F 42.3 °F 47.4 °F
Dew Point: 49.8 °F 39.6 °F 44.5 °F
Humidity: 94 % 85 % 90 %
Wind Speed: 16.0 mph 0.0 mph 6.4 mph
Wind Gust: 27.0 mph - -
Wind:- - SW
Pressure: 30.08 in 29.90 in -
Precipitation: 0.12 in    
Historical Graphs
 
 
Tabular Data for November 7, 2017
Time Temperature Dew Point Pressure Wind Wind Speed Wind Gust Humidity Rainfall Rate (Hourly) solar Conditions
00:02 46.2 °F 42.0 °F 30.05 in ESE 6.0 mph 11.0 mph 85 % 0.00 in 0 W/m2
00:07 46.2 °F 42.3 °F 30.05 in ESE 6.0 mph 8.0 mph 86 % 0.00 in 0 W/m2
00:12 46.2 °F 42.3 °F 30.05 in ESE 4.0 mph 7.0 mph 86 % 0.00 in 0 W/m2
00:17 46.2 °F 42.3 °F 30.05 in ESE 3.0 mph 7.0 mph 86 % 0.00 in 0 W/m2
00:22 46.2 °F 42.3 °F 30.05 in SE 2.0 mph 8.0 mph 86 % 0.00 in 0 W/m2
00:27 46.6 °F 42.9 °F 30.04 in SE 6.0 mph 9.0 mph 87 % 0.00 in 0 W/m2
00:32 46.8 °F 43.1 °F 30.04 in SSE 4.0 mph 10.0 mph 87 % 0.00 in 0 W/m2
00:37 46.9 °F 43.3 °F 30.04 in SSE 6.0 mph 8.0 mph 87 % 0.00 in 0 W/m2
00:42 47.1 °F 43.4 °F 30.04 in SSE 3.0 mph 6.0 mph 87 % 0.00 in 0 W/m2
00:47 47.1 °F 43.4 °F 30.04 in SSE 5.0 mph 10.0 mph 87 % 0.00 in 0 W/m2
00:52 47.5 °F 43.8 °F 30.03 in SE 6.0 mph 11.0 mph 87 % 0.00 in 0 W/m2
00:57 47.5 °F 43.8 °F 30.03 in SE 6.0 mph 9.0 mph 87 % 0.00 in 0 W/m2
00:58 47.5 °F 43.8 °F 30.03 in SE 6.0 mph 9.0 mph 87 % 0.00 in 0 W/m2
01:03 47.5 °F 43.8 °F 30.03 in SE 6.0 mph 11.0 mph 87 % 0.00 in 0 W/m2
01:08 47.5 °F 43.8 °F 30.02 in SSE 6.0 mph 8.0 mph 87 % 0.00 in 0 W/m2
01:13 47.5 °F 43.8 °F 30.02 in SSE 6.0 mph 9.0 mph 87 % 0.00 in 0 W/m2
01:18 47.5 °F 43.8 °F 30.02 in SSE 6.0 mph 10.0 mph 87 % 0.00 in 0 W/m2
01:23 47.5 °F 43.8 °F 30.02 in SSE 5.0 mph 9.0 mph 87 % 0.00 in 0 W/m2
01:28 47.7 °F 44.0 °F 30.01 in South 6.0 mph 11.0 mph 87 % 0.00 in 0 W/m2
01:33 47.8 °F 44.5 °F 30.02 in SSW 9.0 mph 19.0 mph 88 % 0.00 in 0 W/m2
01:38 48.0 °F 44.6 °F 30.01 in SSW 7.0 mph 13.0 mph 88 % 0.00 in 0 W/m2
01:43 48.4 °F 45.0 °F 30.01 in South 10.0 mph 16.0 mph 88 % 0.00 in 0 W/m2
01:48 48.6 °F 45.2 °F 30.00 in South 10.0 mph 19.0 mph 88 % 0.00 in 0 W/m2
01:53 48.6 °F 45.2 °F 30.00 in South 9.0 mph 15.0 mph 88 % 0.00 in 0 W/m2
01:58 48.7 °F 45.3 °F 30.00 in South 9.0 mph 13.0 mph 88 % 0.00 in 0 W/m2
02:03 48.7 °F 45.3 °F 30.01 in SSW 10.0 mph 14.0 mph 88 % 0.00 in 0 W/m2
02:08 48.7 °F 45.3 °F 30.01 in South 10.0 mph 21.0 mph 88 % 0.00 in 0 W/m2
02:09 48.7 °F 45.3 °F 30.00 in SSE 9.0 mph 13.0 mph 88 % 0.00 in 0 W/m2
02:14 48.7 °F 45.3 °F 30.00 in South 8.0 mph 11.0 mph 88 % 0.00 in 0 W/m2
02:19 48.7 °F 45.3 °F 30.00 in SSW 8.0 mph 12.0 mph 88 % 0.00 in 0 W/m2
02:24 48.9 °F 45.5 °F 30.00 in South 11.0 mph 16.0 mph 88 % 0.00 in 0 W/m2
02:29 49.1 °F 45.7 °F 29.99 in South 11.0 mph 18.0 mph 88 % 0.00 in 0 W/m2
02:34 49.1 °F 45.7 °F 29.99 in South 9.0 mph 21.0 mph 88 % 0.00 in 0 W/m2
02:39 49.1 °F 45.7 °F 29.99 in South 11.0 mph 20.0 mph 88 % 0.00 in 0 W/m2
02:44 49.1 °F 45.7 °F 29.99 in SSW 10.0 mph 19.0 mph 88 % 0.00 in 0 W/m2
02:49 49.1 °F 46.0 °F 29.99 in South 7.0 mph 11.0 mph 89 % 0.00 in 0 W/m2
02:54 49.1 °F 46.0 °F 29.98 in South 11.0 mph 19.0 mph 89 % 0.00 in 0 W/m2
02:59 49.1 °F 46.0 °F 29.98 in SSW 13.0 mph 21.0 mph 89 % 0.00 in 0 W/m2
03:04 49.1 °F 46.0 °F 29.98 in South 10.0 mph 15.0 mph 89 % 0.00 in 0 W/m2
03:09 49.3 °F 46.2 °F 29.98 in South 11.0 mph 19.0 mph 89 % 0.00 in 0 W/m2
03:15 49.3 °F 46.2 °F 29.98 in South 11.0 mph 24.0 mph 89 % 0.00 in 0 W/m2
03:20 49.3 °F 46.2 °F 29.98 in South 10.0 mph 20.0 mph 89 % 0.00 in 0 W/m2
03:21 49.3 °F 46.2 °F 29.98 in South 11.0 mph 19.0 mph 89 % 0.00 in 0 W/m2
03:22 49.3 °F 46.2 °F 29.98 in South 10.0 mph 21.0 mph 89 % 0.00 in 0 W/m2
03:28 49.3 °F 46.2 °F 29.97 in SSW 11.0 mph 19.0 mph 89 % 0.00 in 0 W/m2
03:32 49.3 °F 46.2 °F 29.97 in SSW 11.0 mph 19.0 mph 89 % 0.00 in 0 W/m2
03:38 49.5 °F 46.4 °F 29.97 in South 11.0 mph 16.0 mph 89 % 0.00 in 0 W/m2
03:43 49.5 °F 46.4 °F 29.97 in SSW 11.0 mph 23.0 mph 89 % 0.00 in 0 W/m2
03:48 49.5 °F 46.4 °F 29.97 in South 9.0 mph 14.0 mph 89 % 0.00 in 0 W/m2
03:53 49.5 °F 46.4 °F 29.96 in South 11.0 mph 20.0 mph 89 % 0.00 in 0 W/m2
03:58 49.5 °F 46.4 °F 29.97 in SSW 9.0 mph 13.0 mph 89 % 0.00 in 0 W/m2
04:03 49.5 °F 46.4 °F 29.96 in SSW 12.0 mph 24.0 mph 89 % 0.00 in 0 W/m2
04:08 49.6 °F 46.5 °F 29.96 in SSW 10.0 mph 20.0 mph 89 % 0.00 in 0 W/m2
04:13 49.6 °F 46.5 °F 29.96 in South 10.0 mph 19.0 mph 89 % 0.00 in 0 W/m2
04:18 49.5 °F 46.4 °F 29.96 in SSW 10.0 mph 20.0 mph 89 % 0.00 in 0 W/m2
04:23 49.5 °F 46.4 °F 29.96 in South 8.0 mph 14.0 mph 89 % 0.00 in 0 W/m2
04:28 49.3 °F 46.2 °F 29.96 in South 9.0 mph 16.0 mph 89 % 0.00 in 0 W/m2
04:33 49.3 °F 46.2 °F 29.96 in South 10.0 mph 15.0 mph 89 % 0.00 in 0 W/m2
04:38 49.3 °F 46.2 °F 29.96 in South 9.0 mph 15.0 mph 89 % 0.00 in 0 W/m2
04:43 49.3 °F 46.2 °F 29.95 in South 7.0 mph 16.0 mph 89 % 0.00 in 0 W/m2
04:48 49.1 °F 46.0 °F 29.95 in South 9.0 mph 13.0 mph 89 % 0.00 in 0 W/m2
04:53 48.9 °F 46.1 °F 29.95 in SSE 10.0 mph 15.0 mph 90 % 0.00 in 0 W/m2
04:58 48.7 °F 45.9 °F 29.95 in SSE 10.0 mph 15.0 mph 90 % 0.00 in 0 W/m2
05:03 48.7 °F 45.9 °F 29.94 in SSE 9.0 mph 16.0 mph 90 % 0.00 in 0 W/m2
05:09 48.7 °F 45.9 °F 29.94 in SSE 12.0 mph 20.0 mph 90 % 0.00 in 0 W/m2
05:14 48.7 °F 45.9 °F 29.94 in South 12.0 mph 25.0 mph 90 % 0.00 in 0 W/m2
05:19 48.7 °F 45.9 °F 29.94 in South 8.0 mph 13.0 mph 90 % 0.00 in 0 W/m2
05:24 48.7 °F 45.9 °F 29.94 in South 10.0 mph 15.0 mph 90 % 0.00 in 0 W/m2
05:34 49.1 °F 46.3 °F 29.94 in South 12.0 mph 21.0 mph 90 % 0.00 in 0 W/m2
05:44 49.3 °F 46.5 °F 29.93 in South 11.0 mph 20.0 mph 90 % 0.00 in 0 W/m2
05:49 49.3 °F 46.5 °F 29.93 in South 12.0 mph 20.0 mph 90 % 0.00 in 0 W/m2
05:54 49.3 °F 46.5 °F 29.93 in South 11.0 mph 25.0 mph 90 % 0.00 in 0 W/m2
05:59 49.5 °F 46.6 °F 29.93 in South 11.0 mph 19.0 mph 90 % 0.00 in 0 W/m2
06:04 49.5 °F 46.6 °F 29.93 in South 10.0 mph 15.0 mph 90 % 0.00 in 0 W/m2
06:09 49.5 °F 46.6 °F 29.93 in South 9.0 mph 20.0 mph 90 % 0.00 in 0 W/m2
06:14 49.5 °F 46.6 °F 29.93 in South 8.0 mph 16.0 mph 90 % 0.00 in 0 W/m2
06:19 49.6 °F 46.8 °F 29.93 in SSE 9.0 mph 23.0 mph 90 % 0.00 in 0 W/m2
06:24 49.6 °F 46.8 °F 29.93 in SSE 9.0 mph 15.0 mph 90 % 0.00 in 0 W/m2
06:29 49.6 °F 46.8 °F 29.93 in South 6.0 mph 16.0 mph 90 % 0.00 in 0 W/m2
06:34 49.6 °F 46.8 °F 29.93 in South 9.0 mph 20.0 mph 90 % 0.00 in 0 W/m2
06:39 49.6 °F 46.8 °F 29.93 in South 11.0 mph 20.0 mph 90 % 0.00 in 0 W/m2
06:44 49.6 °F 46.8 °F 29.93 in SSE 10.0 mph 19.0 mph 90 % 0.00 in 0 W/m2
06:49 49.6 °F 46.8 °F 29.93 in SSW 8.0 mph 15.0 mph 90 % 0.00 in 0 W/m2
06:54 49.6 °F 46.8 °F 29.93 in South 11.0 mph 21.0 mph 90 % 0.00 in 0 W/m2
06:59 49.6 °F 46.8 °F 29.92 in South 10.0 mph 19.0 mph 90 % 0.00 in 0 W/m2
07:05 49.6 °F 46.8 °F 29.93 in South 8.0 mph 15.0 mph 90 % 0.00 in 0 W/m2
07:10 49.6 °F 46.8 °F 29.93 in South 10.0 mph 18.0 mph 90 % 0.00 in 0 W/m2
07:15 49.6 °F 46.8 °F 29.92 in SSE 9.0 mph 20.0 mph 90 % 0.00 in 5 W/m2
07:25 49.6 °F 47.1 °F 29.93 in South 11.0 mph 20.0 mph 91 % 0.00 in 5 W/m2
07:30 49.8 °F 47.0 °F 29.93 in SSW 11.0 mph 18.0 mph 90 % 0.00 in 9 W/m2
07:35 49.8 °F 47.3 °F 29.92 in SSW 14.0 mph 26.0 mph 91 % 0.00 in 9 W/m2
07:40 50.0 °F 47.2 °F 29.92 in South 12.0 mph 21.0 mph 90 % 0.00 in 12 W/m2
07:45 50.2 °F 47.4 °F 29.92 in South 11.0 mph 20.0 mph 90 % 0.00 in 14 W/m2
07:50 50.0 °F 47.2 °F 29.92 in SSW 11.0 mph 19.0 mph 90 % 0.00 in 21 W/m2
07:55 50.0 °F 47.2 °F 29.92 in South 16.0 mph 27.0 mph 90 % 0.00 in 32 W/m2
08:00 50.2 °F 47.4 °F 29.92 in South 12.0 mph 22.0 mph 90 % 0.00 in 25 W/m2
08:05 50.2 °F 47.4 °F 29.92 in SSW 11.0 mph 24.0 mph 90 % 0.00 in 46 W/m2
08:10 50.2 °F 47.4 °F 29.92 in SSW 12.0 mph 19.0 mph 90 % 0.00 in 67 W/m2
08:15 50.4 °F 47.2 °F 29.92 in South 11.0 mph 22.0 mph 89 % 0.00 in 100 W/m2
08:20 50.5 °F 47.4 °F 29.92 in SSW 13.0 mph 20.0 mph 89 % 0.00 in 107 W/m2
08:25 50.7 °F 47.6 °F 29.92 in SSW 11.0 mph 20.0 mph 89 % 0.00 in 90 W/m2
08:30 50.9 °F 47.5 °F 29.91 in SSW 11.0 mph 22.0 mph 88 % 0.00 in 91 W/m2
08:35 51.1 °F 47.6 °F 29.92 in SSW 13.0 mph 22.0 mph 88 % 0.00 in 95 W/m2
08:40 51.3 °F 47.8 °F 29.92 in South 14.0 mph 26.0 mph 88 % 0.00 in 95 W/m2
08:45 51.4 °F 47.7 °F 29.92 in South 15.0 mph 22.0 mph 87 % 0.00 in 107 W/m2
08:50 51.4 °F 47.7 °F 29.92 in SSW 13.0 mph 22.0 mph 87 % 0.00 in 123 W/m2
08:55 51.6 °F 47.9 °F 29.92 in SSW 12.0 mph 21.0 mph 87 % 0.00 in 74 W/m2
09:00 51.6 °F 47.9 °F 29.92 in South 12.0 mph 21.0 mph 87 % 0.00 in 60 W/m2
09:05 51.4 °F 47.7 °F 29.92 in South 11.0 mph 15.0 mph 87 % 0.00 in 107 W/m2
09:10 51.6 °F 47.9 °F 29.91 in South 12.0 mph 24.0 mph 87 % 0.00 in 88 W/m2
09:15 51.6 °F 47.9 °F 29.92 in SSW 13.0 mph 20.0 mph 87 % 0.00 in 84 W/m2
09:20 51.6 °F 47.9 °F 29.92 in South 10.0 mph 18.0 mph 87 % 0.00 in 49 W/m2
09:25 51.6 °F 47.9 °F 29.92 in South 10.0 mph 15.0 mph 87 % 0.00 in 56 W/m2
09:30 51.6 °F 47.9 °F 29.92 in SSW 11.0 mph 18.0 mph 87 % 0.00 in 62 W/m2
09:35 51.6 °F 47.9 °F 29.92 in South 9.0 mph 15.0 mph 87 % 0.00 in 88 W/m2
09:40 51.6 °F 47.9 °F 29.92 in South 8.0 mph 15.0 mph 87 % 0.00 in 97 W/m2
09:45 51.8 °F 48.1 °F 29.91 in South 9.0 mph 15.0 mph 87 % 0.00 in 95 W/m2
09:50 52.0 °F 48.2 °F 29.91 in SSW 10.0 mph 16.0 mph 87 % 0.00 in 102 W/m2
09:55 52.2 °F 48.4 °F 29.91 in SSW 11.0 mph 18.0 mph 87 % 0.00 in 109 W/m2
10:00 52.2 °F 48.1 °F 29.91 in SSW 10.0 mph 20.0 mph 86 % 0.00 in 127 W/m2
10:06 52.3 °F 48.3 °F 29.92 in SSW 12.0 mph 19.0 mph 86 % 0.00 in 63 W/m2
10:11 52.3 °F 48.3 °F 29.92 in South 8.0 mph 13.0 mph 86 % 0.00 in 65 W/m2
10:16 52.3 °F 48.3 °F 29.92 in South 8.0 mph 16.0 mph 86 % 0.00 in 100 W/m2
10:21 52.3 °F 48.3 °F 29.91 in South 10.0 mph 14.0 mph 86 % 0.00 in 91 W/m2
10:26 52.5 °F 48.5 °F 29.92 in South 8.0 mph 15.0 mph 86 % 0.00 in 86 W/m2
10:31 52.5 °F 48.5 °F 29.92 in South 11.0 mph 18.0 mph 86 % 0.00 in 88 W/m2
10:36 52.5 °F 48.5 °F 29.92 in South 10.0 mph 16.0 mph 86 % 0.00 in 97 W/m2
10:41 52.5 °F 48.8 °F 29.91 in SSE 10.0 mph 15.0 mph 87 % 0.00 in 114 W/m2
10:46 52.3 °F 48.9 °F 29.91 in SSE 9.0 mph 13.0 mph 88 % 0.00 in 84 W/m2
10:51 52.2 °F 48.7 °F 29.91 in South 9.0 mph 15.0 mph 88 % 0.00 in 141 W/m2
10:56 52.2 °F 49.0 °F 29.91 in South 9.0 mph 15.0 mph 89 % 0.00 in 169 W/m2
11:01 52.2 °F 49.0 °F 29.91 in South 8.0 mph 12.0 mph 89 % 0.00 in 116 W/m2
11:06 52.3 °F 49.5 °F 29.91 in South 7.0 mph 11.0 mph 90 % 0.00 in 121 W/m2
11:11 52.2 °F 49.3 °F 29.91 in South 7.0 mph 13.0 mph 90 % 0.00 in 81 W/m2
11:16 52.2 °F 49.3 °F 29.91 in South 9.0 mph 14.0 mph 90 % 0.00 in 67 W/m2
11:26 51.8 °F 49.3 °F 29.91 in South 9.0 mph 15.0 mph 91 % 0.00 in 54 W/m2
11:31 51.6 °F 49.4 °F 29.91 in South 6.0 mph 11.0 mph 92 % 0.01 in 56 W/m2
11:36 51.6 °F 49.4 °F 29.91 in SSE 7.0 mph 10.0 mph 92 % 0.01 in 65 W/m2
11:41 51.4 °F 49.5 °F 29.91 in South 4.0 mph 9.0 mph 93 % 0.01 in 76 W/m2
11:46 51.4 °F 49.5 °F 29.91 in SSE 3.0 mph 6.0 mph 93 % 0.01 in 93 W/m2
11:51 51.4 °F 49.5 °F 29.90 in SSE 5.0 mph 9.0 mph 93 % 0.01 in 62 W/m2
11:56 51.4 °F 49.5 °F 29.90 in South 5.0 mph 10.0 mph 93 % 0.01 in 65 W/m2
12:01 51.4 °F 49.5 °F 29.90 in SSE 4.0 mph 8.0 mph 93 % 0.01 in 62 W/m2
12:11 51.4 °F 49.8 °F 29.91 in South 5.0 mph 12.0 mph 94 % 0.02 in 46 W/m2
12:16 51.3 °F 49.6 °F 29.92 in West 6.0 mph 10.0 mph 94 % 0.02 in 26 W/m2
12:21 51.1 °F 49.4 °F 29.92 in West 10.0 mph 19.0 mph 94 % 0.05 in 25 W/m2
12:26 49.8 °F 47.6 °F 29.92 in WNW 10.0 mph 15.0 mph 92 % 0.06 in 56 W/m2
12:31 48.9 °F 47.0 °F 29.92 in WNW 9.0 mph 15.0 mph 93 % 0.06 in 56 W/m2
12:36 48.4 °F 46.4 °F 29.92 in WNW 9.0 mph 14.0 mph 93 % 0.06 in 62 W/m2
12:41 48.0 °F 46.1 °F 29.92 in WNW 9.0 mph 15.0 mph 93 % 0.06 in 84 W/m2
12:47 47.8 °F 45.9 °F 29.92 in WNW 9.0 mph 13.0 mph 93 % 0.06 in 65 W/m2
12:52 47.7 °F 45.7 °F 29.92 in WNW 8.0 mph 13.0 mph 93 % 0.06 in 63 W/m2
12:57 47.5 °F 45.6 °F 29.92 in WNW 8.0 mph 15.0 mph 93 % 0.06 in 74 W/m2
13:02 47.5 °F 45.6 °F 29.92 in WNW 8.0 mph 14.0 mph 93 % 0.06 in 62 W/m2
13:07 47.5 °F 45.6 °F 29.92 in WNW 7.0 mph 13.0 mph 93 % 0.06 in 72 W/m2
13:12 47.5 °F 45.6 °F 29.92 in WNW 5.0 mph 10.0 mph 93 % 0.06 in 77 W/m2
13:17 47.5 °F 45.6 °F 29.92 in West 8.0 mph 13.0 mph 93 % 0.05 in 62 W/m2
13:22 47.5 °F 45.6 °F 29.92 in WNW 8.0 mph 12.0 mph 93 % 0.02 in 49 W/m2
13:27 47.5 °F 45.6 °F 29.92 in WNW 7.0 mph 11.0 mph 93 % 0.01 in 51 W/m2
13:32 47.5 °F 45.6 °F 29.92 in WNW 7.0 mph 12.0 mph 93 % 0.00 in 62 W/m2
13:37 47.5 °F 45.3 °F 29.92 in WNW 9.0 mph 13.0 mph 92 % 0.00 in 46 W/m2
13:42 47.5 °F 45.3 °F 29.92 in WNW 6.0 mph 10.0 mph 92 % 0.00 in 30 W/m2
13:47 47.3 °F 45.1 °F 29.92 in WNW 7.0 mph 10.0 mph 92 % 0.00 in 33 W/m2
13:52 47.3 °F 44.8 °F 29.92 in WNW 5.0 mph 8.0 mph 91 % 0.00 in 44 W/m2
13:57 47.3 °F 44.8 °F 29.92 in WNW 7.0 mph 11.0 mph 91 % 0.00 in 51 W/m2
14:02 47.3 °F 44.8 °F 29.92 in WNW 3.0 mph 10.0 mph 91 % 0.00 in 39 W/m2
14:07 47.3 °F 44.8 °F 29.93 in WNW 7.0 mph 10.0 mph 91 % 0.00 in 26 W/m2
14:12 47.3 °F 44.8 °F 29.93 in WNW 5.0 mph 10.0 mph 91 % 0.00 in 30 W/m2
14:17 47.1 °F 44.6 °F 29.93 in NW 7.0 mph 13.0 mph 91 % 0.00 in 21 W/m2
14:22 47.1 °F 44.6 °F 29.93 in WNW 7.0 mph 11.0 mph 91 % 0.01 in 25 W/m2
14:27 47.1 °F 44.6 °F 29.93 in WNW 5.0 mph 9.0 mph 91 % 0.01 in 30 W/m2
14:32 47.1 °F 44.9 °F 29.93 in NW 3.0 mph 8.0 mph 92 % 0.01 in 21 W/m2
14:37 46.9 °F 44.7 °F 29.94 in WNW 4.0 mph 7.0 mph 92 % 0.02 in 16 W/m2
14:42 46.9 °F 44.7 °F 29.94 in WNW 5.0 mph 9.0 mph 92 % 0.02 in 18 W/m2
14:47 46.9 °F 44.7 °F 29.94 in WNW 6.0 mph 10.0 mph 92 % 0.02 in 18 W/m2
14:52 46.8 °F 44.6 °F 29.94 in WNW 5.0 mph 12.0 mph 92 % 0.02 in 18 W/m2
14:57 46.8 °F 44.8 °F 29.94 in WNW 5.0 mph 8.0 mph 93 % 0.02 in 21 W/m2
15:02 46.8 °F 44.8 °F 29.94 in WNW 6.0 mph 9.0 mph 93 % 0.02 in 14 W/m2
15:07 46.6 °F 44.7 °F 29.94 in WNW 5.0 mph 9.0 mph 93 % 0.03 in 11 W/m2
15:12 46.6 °F 44.7 °F 29.95 in WNW 6.0 mph 10.0 mph 93 % 0.03 in 11 W/m2
15:17 46.6 °F 44.7 °F 29.94 in NW 5.0 mph 7.0 mph 93 % 0.03 in 12 W/m2
15:22 46.4 °F 44.5 °F 29.94 in NW 7.0 mph 12.0 mph 93 % 0.02 in 11 W/m2
15:27 46.2 °F 44.3 °F 29.95 in NW 6.0 mph 11.0 mph 93 % 0.03 in 9 W/m2
15:32 46.2 °F 44.3 °F 29.95 in WNW 4.0 mph 14.0 mph 93 % 0.03 in 7 W/m2
15:37 46.0 °F 44.1 °F 29.95 in NW 7.0 mph 10.0 mph 93 % 0.02 in 7 W/m2
15:42 45.9 °F 43.7 °F 29.95 in NW 6.0 mph 11.0 mph 92 % 0.02 in 7 W/m2
15:47 45.9 °F 43.7 °F 29.96 in NW 6.0 mph 11.0 mph 92 % 0.02 in 7 W/m2
15:52 45.7 °F 43.5 °F 29.96 in NW 7.0 mph 13.0 mph 92 % 0.02 in 7 W/m2
15:57 45.3 °F 43.1 °F 29.96 in NW 5.0 mph 8.0 mph 92 % 0.02 in 5 W/m2
16:02 45.1 °F 43.0 °F 29.96 in NW 5.0 mph 7.0 mph 92 % 0.02 in 5 W/m2
16:07 45.1 °F 42.7 °F 29.97 in NW 3.0 mph 7.0 mph 91 % 0.02 in 0 W/m2
16:12 45.0 °F 42.5 °F 29.97 in NW 4.0 mph 8.0 mph 91 % 0.02 in 0 W/m2
16:17 44.8 °F 42.3 °F 29.97 in NW 3.0 mph 6.0 mph 91 % 0.02 in 0 W/m2
16:23 44.8 °F 42.3 °F 29.97 in NW 2.0 mph 5.0 mph 91 % 0.02 in 0 W/m2
16:28 44.8 °F 42.3 °F 29.98 in WNW 4.0 mph 7.0 mph 91 % 0.01 in 0 W/m2
16:33 44.6 °F 42.1 °F 29.98 in WNW 4.0 mph 7.0 mph 91 % 0.01 in 0 W/m2
16:38 44.6 °F 41.8 °F 29.98 in NW 5.0 mph 8.0 mph 90 % 0.01 in 0 W/m2
16:43 44.6 °F 41.8 °F 29.98 in WNW 2.0 mph 7.0 mph 90 % 0.01 in 0 W/m2
16:48 44.6 °F 41.8 °F 29.98 in NW 4.0 mph 7.0 mph 90 % 0.01 in 0 W/m2
16:53 44.4 °F 41.7 °F 29.98 in NW 4.0 mph 9.0 mph 90 % 0.00 in 0 W/m2
16:58 44.4 °F 41.7 °F 29.98 in NW 6.0 mph 11.0 mph 90 % 0.00 in 0 W/m2
17:03 44.4 °F 41.4 °F 29.98 in NW 5.0 mph 10.0 mph 89 % 0.00 in 0 W/m2
17:08 44.6 °F 41.6 °F 29.99 in NW 3.0 mph 8.0 mph 89 % 0.00 in 0 W/m2
17:13 44.6 °F 41.6 °F 29.99 in NW 5.0 mph 7.0 mph 89 % 0.00 in 0 W/m2
17:18 44.4 °F 41.1 °F 29.99 in NW 3.0 mph 8.0 mph 88 % 0.00 in 0 W/m2
17:23 44.4 °F 40.8 °F 29.99 in NW 5.0 mph 10.0 mph 87 % 0.00 in 0 W/m2
17:28 44.4 °F 41.1 °F 30.00 in NW 3.0 mph 6.0 mph 88 % 0.00 in 0 W/m2
17:33 44.6 °F 41.3 °F 30.00 in NNW 4.0 mph 7.0 mph 88 % 0.00 in 0 W/m2
17:38 44.6 °F 41.3 °F 30.00 in NW 5.0 mph 8.0 mph 88 % 0.00 in 0 W/m2
17:43 44.6 °F 41.3 °F 30.00 in NW 3.0 mph 6.0 mph 88 % 0.00 in 0 W/m2
17:48 44.6 °F 41.3 °F 30.01 in NW 3.0 mph 6.0 mph 88 % 0.00 in 0 W/m2
17:53 44.6 °F 41.3 °F 30.01 in WNW 1.0 mph 3.0 mph 88 % 0.00 in 0 W/m2
17:58 44.6 °F 41.6 °F 30.01 in NW 3.0 mph 6.0 mph 89 % 0.00 in 0 W/m2
18:00 44.6 °F 41.6 °F 30.01 in NNW 2.0 mph 5.0 mph 89 % 0.00 in 0 W/m2
18:05 44.6 °F 41.6 °F 30.01 in NNW 3.0 mph 6.0 mph 89 % 0.00 in 0 W/m2
18:10 44.6 °F 41.6 °F 30.01 in NNW 2.0 mph 5.0 mph 89 % 0.00 in 0 W/m2
18:15 44.4 °F 41.4 °F 30.01 in NNW 3.0 mph 7.0 mph 89 % 0.00 in 0 W/m2
18:21 44.4 °F 41.4 °F 30.01 in NW 3.0 mph 7.0 mph 89 % 0.00 in 0 W/m2
18:26 44.4 °F 41.4 °F 30.01 in NW 3.0 mph 8.0 mph 89 % 0.00 in 0 W/m2
18:31 44.4 °F 41.7 °F 30.01 in NW 2.0 mph 5.0 mph 90 % 0.00 in 0 W/m2
18:36 44.4 °F 41.7 °F 30.01 in NW 2.0 mph 5.0 mph 90 % 0.00 in 0 W/m2
18:46 44.4 °F 41.7 °F 30.01 in NW 3.0 mph 9.0 mph 90 % 0.00 in 0 W/m2
18:51 44.2 °F 41.5 °F 30.01 in NW 4.0 mph 7.0 mph 90 % 0.00 in 0 W/m2
18:56 44.2 °F 41.5 °F 30.01 in NW 3.0 mph 5.0 mph 90 % 0.00 in 0 W/m2
19:01 44.2 °F 41.5 °F 30.02 in NW 2.0 mph 5.0 mph 90 % 0.00 in 0 W/m2
19:06 44.2 °F 41.5 °F 30.02 in Calm   2.0 mph 90 % 0.00 in 0 W/m2
19:11 44.2 °F 41.5 °F 30.02 in NW 2.0 mph 5.0 mph 90 % 0.00 in 0 W/m2
19:16 44.2 °F 41.5 °F 30.02 in NW 1.0 mph 6.0 mph 90 % 0.00 in 0 W/m2
19:21 44.2 °F 41.5 °F 30.02 in NW 1.0 mph 3.0 mph 90 % 0.00 in 0 W/m2
19:26 44.2 °F 41.5 °F 30.02 in Calm     90 % 0.00 in 0 W/m2
19:31 44.1 °F 41.3 °F 30.03 in Calm   2.0 mph 90 % 0.00 in 0 W/m2
19:36 44.1 °F 41.3 °F 30.03 in NW 1.0 mph 2.0 mph 90 % 0.00 in 0 W/m2
19:41 44.1 °F 41.3 °F 30.03 in Calm   2.0 mph 90 % 0.00 in 0 W/m2
19:46 44.1 °F 41.3 °F 30.03 in Calm   2.0 mph 90 % 0.00 in 0 W/m2
19:51 43.9 °F 41.1 °F 30.03 in Calm   1.0 mph 90 % 0.00 in 0 W/m2
19:56 43.9 °F 41.1 °F 30.03 in Calm   2.0 mph 90 % 0.00 in 0 W/m2
20:01 43.9 °F 41.1 °F 30.03 in Calm   1.0 mph 90 % 0.00 in 0 W/m2
20:06 43.9 °F 41.1 °F 30.03 in NW 2.0 mph 5.0 mph 90 % 0.00 in 0 W/m2
20:11 43.9 °F 41.1 °F 30.03 in Calm   1.0 mph 90 % 0.00 in 0 W/m2
20:16 43.9 °F 41.1 °F 30.03 in Calm   1.0 mph 90 % 0.00 in 0 W/m2
20:21 43.9 °F 41.1 °F 30.04 in Calm     90 % 0.00 in 0 W/m2
20:26 43.7 °F 41.0 °F 30.04 in Calm     90 % 0.00 in 0 W/m2
20:31 43.7 °F 41.0 °F 30.04 in Calm     90 % 0.00 in 0 W/m2
20:36 43.5 °F 40.8 °F 30.04 in Calm     90 % 0.00 in 0 W/m2
20:41 43.5 °F 40.8 °F 30.04 in Calm   1.0 mph 90 % 0.00 in 0 W/m2
20:46 43.5 °F 40.8 °F 30.04 in Calm   2.0 mph 90 % 0.00 in 0 W/m2
20:51 43.5 °F 40.8 °F 30.04 in NNW 1.0 mph 4.0 mph 90 % 0.00 in 0 W/m2
20:56 43.5 °F 40.8 °F 30.04 in Calm   1.0 mph 90 % 0.00 in 0 W/m2
21:01 43.7 °F 41.0 °F 30.04 in Calm     90 % 0.00 in 0 W/m2
21:06 43.5 °F 40.8 °F 30.05 in Calm   1.0 mph 90 % 0.00 in 0 W/m2
21:11 43.5 °F 40.8 °F 30.05 in Calm     90 % 0.00 in 0 W/m2
21:16 43.5 °F 40.8 °F 30.05 in Calm     90 % 0.00 in 0 W/m2
21:21 43.5 °F 40.8 °F 30.05 in Calm     90 % 0.00 in 0 W/m2
21:26 43.3 °F 40.6 °F 30.05 in Calm     90 % 0.00 in 0 W/m2
21:31 43.3 °F 40.6 °F 30.05 in Calm     90 % 0.00 in 0 W/m2
21:36 43.3 °F 40.6 °F 30.05 in Calm     90 % 0.00 in 0 W/m2
21:42 43.3 °F 40.6 °F 30.05 in Calm     90 % 0.00 in 0 W/m2
21:47 43.2 °F 40.4 °F 30.05 in Calm     90 % 0.00 in 0 W/m2
21:52 43.2 °F 40.4 °F 30.05 in Calm     90 % 0.00 in 0 W/m2
21:57 43.0 °F 40.2 °F 30.06 in Calm     90 % 0.00 in 0 W/m2
22:02 43.0 °F 40.5 °F 30.06 in Calm     91 % 0.00 in 0 W/m2
22:07 43.0 °F 40.5 °F 30.05 in Calm     91 % 0.00 in 0 W/m2
22:12 43.0 °F 40.5 °F 30.06 in Calm     91 % 0.00 in 0 W/m2
22:17 42.8 °F 40.4 °F 30.06 in Calm     91 % 0.00 in 0 W/m2
22:22 42.8 °F 40.4 °F 30.06 in Calm     91 % 0.00 in 0 W/m2
22:27 42.6 °F 40.5 °F 30.06 in Calm     92 % 0.00 in 0 W/m2
22:32 42.6 °F 40.5 °F 30.06 in Calm     92 % 0.00 in 0 W/m2
22:37 42.6 °F 40.5 °F 30.06 in Calm     92 % 0.00 in 0 W/m2
22:42 42.4 °F 40.3 °F 30.06 in Calm     92 % 0.00 in 0 W/m2
22:47 42.4 °F 40.3 °F 30.06 in WNW 1.0 mph 4.0 mph 92 % 0.00 in 0 W/m2
22:52 42.3 °F 40.1 °F 30.06 in WNW 1.0 mph 2.0 mph 92 % 0.00 in 0 W/m2
22:57 42.3 °F 40.1 °F 30.07 in WNW 2.0 mph 5.0 mph 92 % 0.00 in 0 W/m2
23:02 42.3 °F 40.1 °F 30.07 in WNW 4.0 mph 7.0 mph 92 % 0.00 in 0 W/m2
23:07 42.3 °F 40.1 °F 30.07 in WNW 4.0 mph 9.0 mph 92 % 0.00 in 0 W/m2
23:12 42.3 °F 39.8 °F 30.07 in NW 3.0 mph 6.0 mph 91 % 0.00 in 0 W/m2
23:17 42.3 °F 39.8 °F 30.07 in WNW 3.0 mph 7.0 mph 91 % 0.00 in 0 W/m2
23:22 42.4 °F 40.0 °F 30.07 in WNW 4.0 mph 8.0 mph 91 % 0.00 in 0 W/m2
23:27 42.4 °F 39.7 °F 30.08 in WNW 5.0 mph 6.0 mph 90 % 0.00 in 0 W/m2
23:32 42.6 °F 39.9 °F 30.08 in WNW 4.0 mph 7.0 mph 90 % 0.00 in 0 W/m2
23:37 42.6 °F 39.9 °F 30.08 in WNW 4.0 mph 9.0 mph 90 % 0.00 in 0 W/m2
23:47 42.6 °F 39.6 °F 30.08 in WNW 4.0 mph 7.0 mph 89 % 0.00 in 0 W/m2
23:52 42.6 °F 39.6 °F 30.08 in WNW 4.0 mph 6.0 mph 89 % 0.00 in 0 W/m2
Delerius-Weather
Compliments of Weather Underground - 2.25 mb

Data updates at regular intervals.